createdAt,value
2017-04-23T00:00:34.334Z,1018.65
2017-04-23T00:01:34.340Z,1018.67
2017-04-23T00:02:34.347Z,1018.65
2017-04-23T00:03:34.350Z,1018.68
2017-04-23T00:04:34.353Z,1018.65
2017-04-23T00:05:34.356Z,1018.71
2017-04-23T00:06:34.362Z,1018.68
2017-04-23T00:07:34.417Z,1018.69
2017-04-23T00:08:34.371Z,1018.73
2017-04-23T00:09:34.376Z,1018.72
2017-04-23T00:10:34.380Z,1018.74
2017-04-23T00:11:34.385Z,1018.69
2017-04-23T00:12:34.389Z,1018.7
2017-04-23T00:13:34.393Z,1018.67
2017-04-23T00:14:34.398Z,1018.66
2017-04-23T00:15:34.401Z,1018.69
2017-04-23T00:16:34.406Z,1018.67
2017-04-23T00:17:34.417Z,1018.65
2017-04-23T00:18:34.414Z,1018.69
2017-04-23T00:19:34.419Z,1018.65
2017-04-23T00:20:34.421Z,1018.65
2017-04-23T00:21:34.428Z,1018.66
2017-04-23T00:22:34.431Z,1018.62
2017-04-23T00:23:34.436Z,1018.65
2017-04-23T00:24:34.443Z,1018.59
2017-04-23T00:25:34.445Z,1018.57
2017-04-23T00:26:34.449Z,1018.64
2017-04-23T00:27:34.503Z,1018.58
2017-04-23T00:28:34.458Z,1018.61
2017-04-23T00:29:34.464Z,1018.59
2017-04-23T00:30:34.517Z,1018.55
2017-04-23T00:31:34.522Z,1018.61
2017-04-23T00:32:34.478Z,1018.61
2017-04-23T00:33:34.480Z,1018.62
2017-04-23T00:34:34.487Z,1018.61
2017-04-23T00:35:34.490Z,1018.6
2017-04-23T00:36:34.495Z,1018.59
2017-04-23T00:37:34.503Z,1018.58
2017-04-23T00:38:34.502Z,1018.59
2017-04-23T00:39:34.508Z,1018.61
2017-04-23T00:40:34.513Z,1018.58
2017-04-23T00:41:34.517Z,1018.58
2017-04-23T00:42:34.522Z,1018.61
2017-04-23T00:43:34.526Z,1018.57
2017-04-23T00:44:34.531Z,1018.62
2017-04-23T00:45:34.536Z,1018.62
2017-04-23T00:46:34.590Z,1018.6
2017-04-23T00:47:34.545Z,1018.58
2017-04-23T00:48:34.550Z,1018.57
2017-04-23T00:49:34.605Z,1018.55
2017-04-23T00:50:34.560Z,1018.61
2017-04-23T00:51:34.566Z,1018.56
2017-04-23T00:52:34.569Z,1018.54
2017-04-23T00:53:34.572Z,1018.52
2017-04-23T00:54:34.629Z,1018.53
2017-04-23T00:55:34.582Z,1018.57
2017-04-23T00:56:34.641Z,1018.56
2017-04-23T00:57:34.591Z,1018.51
2017-04-23T00:58:34.597Z,1018.58
2017-04-23T00:59:34.652Z,1018.53
2017-04-23T01:00:34.605Z,1018.52
2017-04-23T01:01:34.610Z,1018.52
2017-04-23T01:02:34.667Z,1018.54
2017-04-23T01:03:34.669Z,1018.51
2017-04-23T01:04:34.623Z,1018.49
2017-04-23T01:05:34.629Z,1018.48
2017-04-23T01:06:34.631Z,1018.49
2017-04-23T01:07:34.636Z,1018.47
2017-04-23T01:08:34.641Z,1018.48
2017-04-23T01:09:34.646Z,1018.44
2017-04-23T01:10:34.650Z,1018.43
2017-04-23T01:11:34.654Z,1018.42
2017-04-23T01:12:34.659Z,1018.45
2017-04-23T01:13:34.664Z,1018.41
2017-04-23T01:14:34.670Z,1018.4
2017-04-23T01:15:34.673Z,1018.4
2017-04-23T01:16:34.677Z,1018.39
2017-04-23T01:17:34.683Z,1018.39
2017-04-23T01:18:34.686Z,1018.41
2017-04-23T01:19:34.692Z,1018.41
2017-04-23T01:20:34.695Z,1018.45
2017-04-23T01:21:34.749Z,1018.47
2017-04-23T01:22:34.754Z,1018.46
2017-04-23T01:23:34.708Z,1018.49
2017-04-23T01:24:34.761Z,1018.47
2017-04-23T01:25:34.718Z,1018.45
2017-04-23T01:26:34.720Z,1018.48
2017-04-23T01:27:34.724Z,1018.52
2017-04-23T01:28:34.729Z,1018.52
2017-04-23T01:29:34.733Z,1018.52
2017-04-23T01:30:34.790Z,1018.48
2017-04-23T01:31:34.742Z,1018.54
2017-04-23T01:32:34.745Z,1018.52
2017-04-23T01:33:34.751Z,1018.51
2017-04-23T01:34:34.755Z,1018.51
2017-04-23T01:35:34.760Z,1018.47
2017-04-23T01:36:34.763Z,1018.49
2017-04-23T01:37:34.769Z,1018.46
2017-04-23T01:38:34.774Z,1018.44
2017-04-23T01:39:34.777Z,1018.45
2017-04-23T01:40:34.833Z,1018.49
2017-04-23T01:41:34.787Z,1018.5
2017-04-23T01:42:34.790Z,1018.45
2017-04-23T01:43:34.795Z,1018.49
2017-04-23T01:44:34.800Z,1018.46
2017-04-23T01:45:34.805Z,1018.44
2017-04-23T01:46:34.810Z,1018.43
2017-04-23T01:47:34.814Z,1018.47
2017-04-23T01:48:34.820Z,1018.49
2017-04-23T01:49:34.825Z,1018.46
2017-04-23T01:50:34.829Z,1018.46
2017-04-23T01:51:34.833Z,1018.44
2017-04-23T01:52:34.836Z,1018.48
2017-04-23T01:53:34.843Z,1018.44
2017-04-23T01:54:34.851Z,1018.43
2017-04-23T01:55:34.852Z,1018.4
2017-04-23T01:56:34.906Z,1018.45
2017-04-23T01:57:34.861Z,1018.44
2017-04-23T01:58:34.864Z,1018.39
2017-04-23T01:59:34.870Z,1018.41
2017-04-23T02:00:34.873Z,1018.42
2017-04-23T02:01:34.878Z,1018.4
2017-04-23T02:02:34.881Z,1018.37
2017-04-23T02:03:34.885Z,1018.42
2017-04-23T02:04:34.890Z,1018.39
2017-04-23T02:05:34.893Z,1018.38
2017-04-23T02:06:34.899Z,1018.42
2017-04-23T02:07:34.903Z,1018.38
2017-04-23T02:08:34.907Z,1018.36
2017-04-23T02:09:34.914Z,1018.39
2017-04-23T02:10:34.919Z,1018.37
2017-04-23T02:11:34.921Z,1018.39
2017-04-23T02:12:34.926Z,1018.38
2017-04-23T02:13:34.929Z,1018.36
2017-04-23T02:14:34.936Z,1018.41
2017-04-23T02:15:34.990Z,1018.39
2017-04-23T02:16:34.943Z,1018.38
2017-04-23T02:17:34.947Z,1018.35
2017-04-23T02:18:34.953Z,1018.33
2017-04-23T02:19:34.956Z,1018.34
2017-04-23T02:20:34.960Z,1018.37
2017-04-23T02:21:34.981Z,1018.32
2017-04-23T02:22:34.970Z,1018.33
2017-04-23T02:23:34.975Z,1018.38
2017-04-23T02:24:34.979Z,1018.36
2017-04-23T02:25:35.034Z,1018.33
2017-04-23T02:26:34.988Z,1018.36
2017-04-23T02:27:34.990Z,1018.32
2017-04-23T02:28:34.997Z,1018.33
2017-04-23T02:29:35.000Z,1018.34
2017-04-23T02:30:35.005Z,1018.32
2017-04-23T02:31:35.009Z,1018.35
2017-04-23T02:32:35.014Z,1018.34
2017-04-23T02:33:35.018Z,1018.35
2017-04-23T02:34:35.026Z,1018.37
2017-04-23T02:35:35.026Z,1018.34
2017-04-23T02:36:35.035Z,1018.36
2017-04-23T02:37:35.036Z,1018.35
2017-04-23T02:38:35.042Z,1018.36
2017-04-23T02:39:35.045Z,1018.32
2017-04-23T02:40:35.049Z,1018.33
2017-04-23T02:41:35.103Z,1018.32
2017-04-23T02:42:35.058Z,1018.31
2017-04-23T02:43:35.063Z,1018.28
2017-04-23T02:44:35.119Z,1018.28
2017-04-23T02:45:35.074Z,1018.28
2017-04-23T02:46:35.078Z,1018.3
2017-04-23T02:47:35.083Z,1018.29
2017-04-23T02:48:35.087Z,1018.31
2017-04-23T02:49:35.093Z,1018.27
2017-04-23T02:50:35.096Z,1018.24
2017-04-23T02:51:35.102Z,1018.26
2017-04-23T02:52:35.105Z,1018.26
2017-04-23T02:53:35.159Z,1018.3
2017-04-23T02:54:35.114Z,1018.28
2017-04-23T02:55:35.120Z,1018.29
2017-04-23T02:56:35.174Z,1018.3
2017-04-23T02:57:35.127Z,1018.25
2017-04-23T02:58:35.133Z,1018.29
2017-04-23T02:59:35.187Z,1018.29
2017-04-23T03:00:35.193Z,1018.3
2017-04-23T03:01:35.147Z,1018.31
2017-04-23T03:02:35.201Z,1018.34
2017-04-23T03:03:35.155Z,1018.35
2017-04-23T03:04:35.158Z,1018.34
2017-04-23T03:05:35.163Z,1018.35
2017-04-23T03:06:35.169Z,1018.33
2017-04-23T03:07:35.172Z,1018.35
2017-04-23T03:08:35.177Z,1018.39
2017-04-23T03:09:35.182Z,1018.36
2017-04-23T03:10:35.186Z,1018.37
2017-04-23T03:11:35.189Z,1018.35
2017-04-23T03:12:35.195Z,1018.35
2017-04-23T03:13:35.196Z,1018.37
2017-04-23T03:14:35.202Z,1018.37
2017-04-23T03:15:35.208Z,1018.39
2017-04-23T03:16:35.213Z,1018.41
2017-04-23T03:17:35.217Z,1018.37
2017-04-23T03:18:35.218Z,1018.4
2017-04-23T03:19:35.275Z,1018.41
2017-04-23T03:20:35.230Z,1018.39
2017-04-23T03:21:35.283Z,1018.36
2017-04-23T03:22:35.239Z,1018.39
2017-04-23T03:23:35.241Z,1018.43
2017-04-23T03:24:35.247Z,1018.4
2017-04-23T03:25:35.298Z,1018.37
2017-04-23T03:26:35.253Z,1018.41
2017-04-23T03:27:35.260Z,1018.4
2017-04-23T03:28:35.265Z,1018.38
2017-04-23T03:29:35.269Z,1018.37
2017-04-23T03:30:35.271Z,1018.37
2017-04-23T03:31:35.276Z,1018.38
2017-04-23T03:32:35.280Z,1018.38
2017-04-23T03:33:35.282Z,1018.36
2017-04-23T03:34:35.289Z,1018.38
2017-04-23T03:35:35.292Z,1018.36
2017-04-23T03:36:35.298Z,1018.35
2017-04-23T03:37:35.300Z,1018.38
2017-04-23T03:38:35.307Z,1018.34
2017-04-23T03:39:35.314Z,1018.34
2017-04-23T03:40:35.315Z,1018.37
2017-04-23T03:41:35.370Z,1018.37
2017-04-23T03:42:35.373Z,1018.34
2017-04-23T03:43:35.326Z,1018.32
2017-04-23T03:44:35.331Z,1018.35
2017-04-23T03:45:35.386Z,1018.33
2017-04-23T03:46:35.342Z,1018.36
2017-04-23T03:47:35.344Z,1018.36
2017-04-23T03:48:35.397Z,1018.34
2017-04-23T03:49:35.354Z,1018.4
2017-04-23T03:50:35.359Z,1018.42
2017-04-23T03:51:35.364Z,1018.43
2017-04-23T03:52:35.369Z,1018.4
2017-04-23T03:53:35.422Z,1018.43
2017-04-23T03:54:35.374Z,1018.42
2017-04-23T03:55:35.381Z,1018.44
2017-04-23T03:56:35.437Z,1018.44
2017-04-23T03:57:35.391Z,1018.45
2017-04-23T03:58:35.395Z,1018.46
2017-04-23T03:59:35.400Z,1018.48
2017-04-23T04:00:35.405Z,1018.44
2017-04-23T04:01:35.459Z,1018.47
2017-04-23T04:02:35.413Z,1018.45
2017-04-23T04:03:35.417Z,1018.5
2017-04-23T04:04:35.472Z,1018.52
2017-04-23T04:05:35.426Z,1018.48
2017-04-23T04:06:35.430Z,1018.5
2017-04-23T04:07:35.435Z,1018.51
2017-04-23T04:08:35.440Z,1018.47
2017-04-23T04:09:35.443Z,1018.48
2017-04-23T04:10:35.448Z,1018.5
2017-04-23T04:11:35.452Z,1018.5
2017-04-23T04:12:35.457Z,1018.5
2017-04-23T04:13:35.459Z,1018.51
2017-04-23T04:14:35.465Z,1018.56
2017-04-23T04:15:35.470Z,1018.55
2017-04-23T04:16:35.473Z,1018.55
2017-04-23T04:17:35.478Z,1018.52
2017-04-23T04:18:35.482Z,1018.59
2017-04-23T04:19:35.488Z,1018.59
2017-04-23T04:20:35.491Z,1018.56
2017-04-23T04:21:35.495Z,1018.59
2017-04-23T04:22:35.549Z,1018.57
2017-04-23T04:23:35.505Z,1018.55
2017-04-23T04:24:35.509Z,1018.57
2017-04-23T04:25:35.514Z,1018.55
2017-04-23T04:26:35.518Z,1018.52
2017-04-23T04:27:35.824Z,1018.57
2017-04-23T04:28:35.530Z,1018.56
2017-04-23T04:29:35.531Z,1018.58
2017-04-23T04:30:35.535Z,1018.55
2017-04-23T04:31:35.589Z,1018.6
2017-04-23T04:32:35.543Z,1018.64
2017-04-23T04:33:35.548Z,1018.65
2017-04-23T04:34:35.551Z,1018.63
2017-04-23T04:35:35.557Z,1018.66
2017-04-23T04:36:35.561Z,1018.67
2017-04-23T04:37:35.618Z,1018.7
2017-04-23T04:38:35.569Z,1018.71
2017-04-23T04:39:35.574Z,1018.69
2017-04-23T04:40:35.578Z,1018.72
2017-04-23T04:41:35.583Z,1018.68
2017-04-23T04:42:35.587Z,1018.69
2017-04-23T04:43:35.641Z,1018.73
2017-04-23T04:44:35.595Z,1018.68
2017-04-23T04:45:35.599Z,1018.7
2017-04-23T04:46:35.651Z,1018.7
2017-04-23T04:47:35.658Z,1018.72
2017-04-23T04:48:35.662Z,1018.73
2017-04-23T04:49:35.616Z,1018.71
2017-04-23T04:50:35.618Z,1018.7
2017-04-23T04:51:35.625Z,1018.74
2017-04-23T04:52:35.629Z,1018.74
2017-04-23T04:53:35.635Z,1018.68
2017-04-23T04:54:35.638Z,1018.69
2017-04-23T04:55:35.642Z,1018.71
2017-04-23T04:56:35.646Z,1018.72
2017-04-23T04:57:35.652Z,1018.7
2017-04-23T04:58:35.656Z,1018.74
2017-04-23T04:59:35.660Z,1018.66
2017-04-23T05:00:35.665Z,1018.71
2017-04-23T05:01:35.719Z,1018.7
2017-04-23T05:02:35.675Z,1018.72
2017-04-23T05:03:35.679Z,1018.75
2017-04-23T05:04:35.682Z,1018.82
2017-04-23T05:05:35.688Z,1018.75
2017-04-23T05:06:35.745Z,1018.75
2017-04-23T05:07:35.697Z,1018.78
2017-04-23T05:08:35.701Z,1018.8
2017-04-23T05:09:35.706Z,1018.79
2017-04-23T05:10:35.710Z,1018.78
2017-04-23T05:11:35.716Z,1018.83
2017-04-23T05:12:35.769Z,1018.8
2017-04-23T05:13:35.724Z,1018.84
2017-04-23T05:14:35.730Z,1018.82
2017-04-23T05:15:35.732Z,1018.82
2017-04-23T05:16:35.739Z,1018.85
2017-04-23T05:17:35.791Z,1018.85
2017-04-23T05:18:35.745Z,1018.85
2017-04-23T05:19:35.751Z,1018.86
2017-04-23T05:20:35.805Z,1018.84
2017-04-23T05:21:35.776Z,1018.85
2017-04-23T05:22:35.764Z,1018.89
2017-04-23T05:23:35.767Z,1018.9
2017-04-23T05:24:35.771Z,1018.92
2017-04-23T05:25:35.775Z,1018.87
2017-04-23T05:26:35.779Z,1018.91
2017-04-23T05:27:35.784Z,1018.93
2017-04-23T05:28:35.838Z,1018.95
2017-04-23T05:29:35.792Z,1018.95
2017-04-23T05:30:35.797Z,1018.92
2017-04-23T05:31:35.801Z,1018.96
2017-04-23T05:32:35.856Z,1018.96
2017-04-23T05:33:35.809Z,1019.02
2017-04-23T05:34:35.814Z,1019
2017-04-23T05:35:35.818Z,1018.97
2017-04-23T05:36:35.824Z,1019.02
2017-04-23T05:37:35.877Z,1019.07
2017-04-23T05:38:35.831Z,1019.02
2017-04-23T05:39:35.835Z,1019.01
2017-04-23T05:40:35.839Z,1019.04
2017-04-23T05:41:35.846Z,1019.02
2017-04-23T05:42:35.849Z,1019.05
2017-04-23T05:43:35.853Z,1019.07
2017-04-23T05:44:35.857Z,1019.07
2017-04-23T05:45:35.861Z,1019.12
2017-04-23T05:46:35.865Z,1019.15
2017-04-23T05:47:35.870Z,1019.11
2017-04-23T05:48:35.874Z,1019.24
2017-04-23T05:49:35.880Z,1019.21
2017-04-23T05:50:35.885Z,1019.21
2017-04-23T05:51:35.937Z,1019.36
2017-04-23T05:52:35.892Z,1019.31
2017-04-23T05:53:35.898Z,1019.16
2017-04-23T05:54:35.902Z,1019.19
2017-04-23T05:55:35.956Z,1019.27
2017-04-23T05:56:35.917Z,1019.24
2017-04-23T05:57:35.917Z,1019.27
2017-04-23T05:58:35.922Z,1019.36
2017-04-23T05:59:35.926Z,1019.3
2017-04-23T06:00:35.934Z,1019.34
2017-04-23T06:01:35.937Z,1019.32
2017-04-23T06:02:35.942Z,1019.31
2017-04-23T06:03:35.947Z,1019.35
2017-04-23T06:04:35.952Z,1019.32
2017-04-23T06:05:35.955Z,1019.33
2017-04-23T06:06:35.962Z,1019.51
2017-04-23T06:07:35.967Z,1019.38
2017-04-23T06:08:35.971Z,1019.56
2017-04-23T06:09:35.975Z,1019.56
2017-04-23T06:10:35.981Z,1019.44
2017-04-23T06:11:35.986Z,1019.54
2017-04-23T06:12:35.992Z,1019.62
2017-04-23T06:13:35.997Z,1019.52
2017-04-23T06:14:36.001Z,1019.62
2017-04-23T06:15:36.008Z,1019.57
2017-04-23T06:16:36.013Z,1019.63
2017-04-23T06:17:36.019Z,1019.82
2017-04-23T06:18:36.023Z,1019.45
2017-04-23T06:19:36.080Z,1019.47
2017-04-23T06:20:36.034Z,1019.43
2017-04-23T06:21:36.041Z,1019.49
2017-04-23T06:22:36.096Z,1019.6
2017-04-23T06:23:36.053Z,1019.44
2017-04-23T06:24:36.056Z,1019.5
2017-04-23T06:25:36.114Z,1019.48
2017-04-23T06:26:36.071Z,1019.66
2017-04-23T06:27:36.077Z,1019.57
2017-04-23T06:28:36.082Z,1019.46
2017-04-23T06:29:36.087Z,1019.46
2017-04-23T06:30:36.093Z,1019.42
2017-04-23T06:31:36.098Z,1019.42
2017-04-23T06:32:36.104Z,1019.4
2017-04-23T06:33:36.110Z,1019.35
2017-04-23T06:34:36.116Z,1019.38
2017-04-23T06:35:36.122Z,1019.39
2017-04-23T06:36:36.133Z,1019.47
2017-04-23T06:37:36.136Z,1020
2017-04-23T06:38:36.141Z,1020.13
2017-04-23T06:39:36.147Z,1020.06
2017-04-23T06:40:36.152Z,1020.25
2017-04-23T06:41:36.159Z,1020.26
2017-04-23T06:42:36.165Z,1020.3
2017-04-23T06:43:36.172Z,1020.19
2017-04-23T06:44:36.179Z,1020.42
2017-04-23T06:45:36.187Z,1020.5
2017-04-23T06:46:36.192Z,1020.5
2017-04-23T06:47:36.199Z,1020.55
2017-04-23T06:48:36.209Z,1020.65
2017-04-23T06:49:36.217Z,1020.6
2017-04-23T06:50:36.222Z,1020.56
2017-04-23T06:51:36.229Z,1020.59
2017-04-23T06:52:36.289Z,1020.69
2017-04-23T06:53:36.246Z,1020.67
2017-04-23T06:54:36.254Z,1020.72
2017-04-23T06:55:36.262Z,1020.75
2017-04-23T06:56:36.274Z,1020.71
2017-04-23T06:57:36.280Z,1020.72
2017-04-23T06:58:36.285Z,1020.75
2017-04-23T06:59:36.292Z,1020.77
2017-04-23T07:00:36.300Z,1020.74
2017-04-23T07:01:36.308Z,1020.74
2017-04-23T07:02:36.318Z,1020.71
2017-04-23T07:03:36.375Z,1020.76
2017-04-23T07:04:36.332Z,1020.77
2017-04-23T07:05:36.344Z,1020.06
2017-04-23T07:06:36.399Z,1020.73
2017-04-23T07:07:36.408Z,1020.56
2017-04-23T07:08:36.365Z,1019.69
2017-04-23T07:09:36.372Z,1019.72
2017-04-23T07:10:36.382Z,1019.66
2017-04-23T07:11:36.389Z,1019.62
2017-04-23T07:12:36.397Z,1019.59
2017-04-23T07:13:36.405Z,1019.64
2017-04-23T07:14:36.411Z,1019.62
2017-04-23T07:15:36.468Z,1019.64
2017-04-23T07:16:36.425Z,1019.68
2017-04-23T07:17:36.433Z,1019.71
2017-04-23T07:18:36.438Z,1019.72
2017-04-23T07:19:36.445Z,1019.68
2017-04-23T07:20:36.453Z,1019.61
2017-04-23T07:21:36.459Z,1019.59
2017-04-23T07:22:36.466Z,1019.66
2017-04-23T07:23:36.473Z,1019.64
2017-04-23T07:24:36.479Z,1019.64
2017-04-23T07:25:36.485Z,1019.67
2017-04-23T07:26:36.541Z,1019.66
2017-04-23T07:27:36.497Z,1019.66
2017-04-23T07:28:36.506Z,1019.65
2017-04-23T07:29:36.511Z,1019.67
2017-04-23T07:30:36.516Z,1019.64
2017-04-23T07:31:36.523Z,1019.66
2017-04-23T07:32:36.577Z,1019.67
2017-04-23T07:33:36.536Z,1019.66
2017-04-23T07:34:36.542Z,1019.68
2017-04-23T07:35:36.549Z,1019.65
2017-04-23T07:36:36.556Z,1019.67
2017-04-23T07:37:36.611Z,1019.68
2017-04-23T07:38:36.567Z,1019.69
2017-04-23T07:39:36.573Z,1019.67
2017-04-23T07:40:36.579Z,1019.63
2017-04-23T07:41:36.584Z,1019.6
2017-04-23T07:42:36.591Z,1019.57
2017-04-23T07:43:36.597Z,1019.59
2017-04-23T07:44:36.653Z,1019.62
2017-04-23T07:45:36.608Z,1019.67
2017-04-23T07:46:36.613Z,1019.68
2017-04-23T07:47:36.620Z,1019.69
2017-04-23T07:48:36.625Z,1019.69
2017-04-23T07:49:36.631Z,1019.72
2017-04-23T07:50:36.694Z,1019.72
2017-04-23T07:51:36.642Z,1019.74
2017-04-23T07:52:36.648Z,1019.76
2017-04-23T07:53:36.653Z,1019.72
2017-04-23T07:54:36.660Z,1019.69
2017-04-23T07:55:36.665Z,1019.74
2017-04-23T07:56:36.670Z,1019.73
2017-04-23T07:57:36.677Z,1019.75
2017-04-23T07:58:36.684Z,1019.75
2017-04-23T07:59:36.688Z,1019.72
2017-04-23T08:00:36.694Z,1019.72
2017-04-23T08:01:36.750Z,1019.72
2017-04-23T08:02:36.706Z,1019.66
2017-04-23T08:03:36.711Z,1019.65
2017-04-23T08:04:36.717Z,1019.61
2017-04-23T08:05:36.739Z,1019.63
2017-04-23T08:06:36.776Z,1019.6
2017-04-23T08:07:36.733Z,1019.57
2017-04-23T08:08:36.739Z,1019.59
2017-04-23T08:09:36.744Z,1019.6
2017-04-23T08:10:36.749Z,1019.58
2017-04-23T08:11:36.758Z,1019.56
2017-04-23T08:12:36.758Z,1019.56
2017-04-23T08:13:36.766Z,1019.55
2017-04-23T08:14:36.770Z,1019.62
2017-04-23T08:15:36.777Z,1019.6
2017-04-23T08:16:36.782Z,1019.6
2017-04-23T08:17:36.786Z,1019.58
2017-04-23T08:18:36.792Z,1019.58
2017-04-23T08:19:36.849Z,1019.58
2017-04-23T08:20:36.802Z,1019.61
2017-04-23T08:21:36.805Z,1019.58
2017-04-23T08:22:36.812Z,1019.63
2017-04-23T08:23:36.817Z,1019.66
2017-04-23T08:24:36.823Z,1019.62
2017-04-23T08:25:36.827Z,1019.62
2017-04-23T08:26:36.832Z,1019.63
2017-04-23T08:27:36.839Z,1019.6
2017-04-23T08:28:36.841Z,1019.61
2017-04-23T08:29:36.896Z,1019.6
2017-04-23T08:30:36.854Z,1019.64
2017-04-23T08:31:36.858Z,1019.67
2017-04-23T08:32:36.863Z,1019.69
2017-04-23T08:33:36.868Z,1019.63
2017-04-23T08:34:36.873Z,1019.63
2017-04-23T08:35:36.879Z,1019.65
2017-04-23T08:36:36.881Z,1019.66
2017-04-23T08:37:36.890Z,1019.66
2017-04-23T08:38:36.945Z,1019.65
2017-04-23T08:39:36.899Z,1019.59
2017-04-23T08:40:36.904Z,1019.67
2017-04-23T08:41:36.909Z,1019.67
2017-04-23T08:42:36.914Z,1019.65
2017-04-23T08:43:36.918Z,1019.67
2017-04-23T08:44:36.975Z,1019.68
2017-04-23T08:45:36.928Z,1019.66
2017-04-23T08:46:36.935Z,1019.67
2017-04-23T08:47:36.941Z,1019.66
2017-04-23T08:48:36.946Z,1019.74
2017-04-23T08:49:36.951Z,1019.72
2017-04-23T08:50:36.954Z,1019.77
2017-04-23T08:51:36.960Z,1019.73
2017-04-23T08:52:36.964Z,1019.74
2017-04-23T08:53:36.970Z,1019.71
2017-04-23T08:54:37.034Z,1019.67
2017-04-23T08:55:36.980Z,1019.62
2017-04-23T08:56:36.984Z,1019.67
2017-04-23T08:57:36.990Z,1019.68
2017-04-23T08:58:37.009Z,1019.69
2017-04-23T08:59:37.012Z,1019.73
2017-04-23T09:00:37.020Z,1019.69
2017-04-23T09:01:37.020Z,1019.71
2017-04-23T09:02:37.026Z,1019.72
2017-04-23T09:03:37.033Z,1019.74
2017-04-23T09:04:37.040Z,1019.73
2017-04-23T09:05:37.039Z,1019.72
2017-04-23T09:06:37.049Z,1019.74
2017-04-23T09:07:37.040Z,1019.7
2017-04-23T09:08:37.045Z,1019.76
2017-04-23T09:09:37.063Z,1019.79
2017-04-23T09:10:37.055Z,1019.76
2017-04-23T09:11:37.061Z,1019.77
2017-04-23T09:12:37.085Z,1019.76
2017-04-23T09:13:37.119Z,1019.68
2017-04-23T09:14:37.075Z,1019.69
2017-04-23T09:15:37.081Z,1019.69
2017-04-23T09:16:37.134Z,1019.74
2017-04-23T09:17:37.103Z,1019.7
2017-04-23T09:18:37.095Z,1019.67
2017-04-23T09:19:37.150Z,1019.69
2017-04-23T09:20:37.170Z,1019.76
2017-04-23T09:21:37.110Z,1019.75
2017-04-23T09:22:37.127Z,1019.72
2017-04-23T09:23:37.133Z,1019.75
2017-04-23T09:24:37.135Z,1019.77
2017-04-23T09:25:37.183Z,1019.75
2017-04-23T09:26:37.135Z,1019.72
2017-04-23T09:27:37.150Z,1019.72
2017-04-23T09:28:37.146Z,1019.74
2017-04-23T09:29:37.150Z,1019.76
2017-04-23T09:30:37.156Z,1019.75
2017-04-23T09:31:37.173Z,1019.73
2017-04-23T09:32:37.165Z,1019.72
2017-04-23T09:33:37.171Z,1019.75
2017-04-23T09:34:37.176Z,1019.72
2017-04-23T09:35:37.231Z,1019.72
2017-04-23T09:36:37.186Z,1019.74
2017-04-23T09:37:37.192Z,1019.67
2017-04-23T09:38:37.195Z,1019.74
2017-04-23T09:39:37.200Z,1019.67
2017-04-23T09:40:37.206Z,1019.71
2017-04-23T09:41:37.211Z,1019.7
2017-04-23T09:42:37.216Z,1019.7
2017-04-23T09:43:37.220Z,1019.77
2017-04-23T09:44:37.226Z,1019.77
2017-04-23T09:45:37.230Z,1019.78
2017-04-23T09:46:37.234Z,1019.84
2017-04-23T09:47:37.291Z,1019.85
2017-04-23T09:48:37.245Z,1019.85
2017-04-23T09:49:37.250Z,1019.79
2017-04-23T09:50:37.254Z,1019.79
2017-04-23T09:51:37.259Z,1019.82
2017-04-23T09:52:37.263Z,1019.82
2017-04-23T09:53:37.269Z,1019.89
2017-04-23T09:54:37.274Z,1019.88
2017-04-23T09:55:37.288Z,1019.84
2017-04-23T09:56:37.333Z,1019.87
2017-04-23T09:57:37.301Z,1019.87
2017-04-23T09:58:37.294Z,1019.86
2017-04-23T09:59:37.297Z,1019.82
2017-04-23T10:00:37.353Z,1019.78
2017-04-23T10:01:37.357Z,1019.78
2017-04-23T10:02:37.314Z,1019.87
2017-04-23T10:03:37.319Z,1019.78
2017-04-23T10:04:37.372Z,1019.84
2017-04-23T10:05:37.328Z,1019.77
2017-04-23T10:06:37.334Z,1019.78
2017-04-23T10:07:37.338Z,1019.8
2017-04-23T10:08:37.394Z,1019.77
2017-04-23T10:09:37.349Z,1019.78
2017-04-23T10:10:37.355Z,1019.82
2017-04-23T10:11:37.357Z,1019.79
2017-04-23T10:12:37.364Z,1019.81
2017-04-23T10:13:37.368Z,1019.79
2017-04-23T10:14:37.371Z,1019.78
2017-04-23T10:15:37.376Z,1019.81
2017-04-23T10:16:37.382Z,1019.8
2017-04-23T10:17:37.387Z,1019.81
2017-04-23T10:18:37.391Z,1019.79
2017-04-23T10:19:37.396Z,1019.81
2017-04-23T10:20:37.468Z,1019.81
2017-04-23T10:21:37.405Z,1019.86
2017-04-23T10:22:37.409Z,1019.85
2017-04-23T10:23:37.415Z,1019.81
2017-04-23T10:24:37.419Z,1019.83
2017-04-23T10:25:37.423Z,1019.81
2017-04-23T10:26:37.428Z,1019.83
2017-04-23T10:27:37.436Z,1019.79
2017-04-23T10:28:37.490Z,1019.8
2017-04-23T10:29:37.444Z,1019.74
2017-04-23T10:30:37.447Z,1019.8
2017-04-23T10:31:37.453Z,1019.75
2017-04-23T10:32:37.458Z,1019.77
2017-04-23T10:33:37.463Z,1019.79
2017-04-23T10:34:37.498Z,1019.83
2017-04-23T10:35:37.471Z,1019.84
2017-04-23T10:36:37.475Z,1019.84
2017-04-23T10:37:37.481Z,1019.86
2017-04-23T10:38:37.486Z,1019.94
2017-04-23T10:39:37.489Z,1019.86
2017-04-23T10:40:37.545Z,1019.82
2017-04-23T10:41:37.500Z,1019.86
2017-04-23T10:42:37.504Z,1019.83
2017-04-23T10:43:37.511Z,1019.82
2017-04-23T10:44:37.516Z,1019.73
2017-04-23T10:45:37.570Z,1019.67
2017-04-23T10:46:37.525Z,1019.68
2017-04-23T10:47:37.578Z,1019.7
2017-04-23T10:48:37.535Z,1019.7
2017-04-23T10:49:37.539Z,1019.66
2017-04-23T10:50:37.545Z,1019.6
2017-04-23T10:51:37.550Z,1019.6
2017-04-23T10:52:37.604Z,1019.61
2017-04-23T10:53:37.558Z,1019.55
2017-04-23T10:54:37.562Z,1019.56
2017-04-23T10:55:37.572Z,1019.62
2017-04-23T10:56:37.623Z,1019.55
2017-04-23T10:57:37.578Z,1019.55
2017-04-23T10:58:37.582Z,1019.48
2017-04-23T10:59:37.586Z,1019.51
2017-04-23T11:00:37.592Z,1019.51
2017-04-23T11:01:37.598Z,1019.55
2017-04-23T11:02:37.601Z,1019.49
2017-04-23T11:03:37.657Z,1019.45
2017-04-23T11:04:37.662Z,1019.46
2017-04-23T11:05:37.615Z,1019.42
2017-04-23T11:06:37.619Z,1019.4
2017-04-23T11:07:37.626Z,1019.36
2017-04-23T11:08:37.681Z,1019.44
2017-04-23T11:09:37.634Z,1019.44
2017-04-23T11:10:37.641Z,1019.42
2017-04-23T11:11:37.695Z,1019.47
2017-04-23T11:12:37.651Z,1019.43
2017-04-23T11:13:37.654Z,1019.44
2017-04-23T11:14:37.710Z,1019.37
2017-04-23T11:15:37.663Z,1019.4
2017-04-23T11:16:37.669Z,1019.35
2017-04-23T11:17:37.675Z,1019.28
2017-04-23T11:18:37.681Z,1019.27
2017-04-23T11:19:37.684Z,1019.27
2017-04-23T11:20:37.689Z,1019.23
2017-04-23T11:21:37.695Z,1019.24
2017-04-23T11:22:37.700Z,1019.17
2017-04-23T11:23:37.705Z,1019.21
2017-04-23T11:24:37.709Z,1019.18
2017-04-23T11:25:37.715Z,1019.13
2017-04-23T11:26:37.720Z,1019.12
2017-04-23T11:27:37.723Z,1019.15
2017-04-23T11:28:37.728Z,1019.17
2017-04-23T11:29:37.734Z,1019.18
2017-04-23T11:30:37.740Z,1019.11
2017-04-23T11:31:37.744Z,1019.2
2017-04-23T11:32:37.800Z,1019.22
2017-04-23T11:33:37.754Z,1019.17
2017-04-23T11:34:37.759Z,1019.19
2017-04-23T11:35:37.763Z,1019.12
2017-04-23T11:36:37.768Z,1019.13
2017-04-23T11:37:37.775Z,1019.11
2017-04-23T11:38:37.780Z,1019.09
2017-04-23T11:39:37.784Z,1019.08
2017-04-23T11:40:37.788Z,1019.13
2017-04-23T11:41:37.795Z,1019.09
2017-04-23T11:42:37.799Z,1019.05
2017-04-23T11:43:37.804Z,1019.07
2017-04-23T11:44:37.809Z,1019.08
2017-04-23T11:45:37.815Z,1019.05
2017-04-23T11:46:37.818Z,1019.08
2017-04-23T11:47:37.823Z,1019.12
2017-04-23T11:48:37.880Z,1019.08
2017-04-23T11:49:37.833Z,1019.19
2017-04-23T11:50:37.838Z,1019.15
2017-04-23T11:51:37.842Z,1019.12
2017-04-23T11:52:37.849Z,1019.12
2017-04-23T11:53:37.852Z,1019.15
2017-04-23T11:54:37.906Z,1019.14
2017-04-23T11:55:37.861Z,1019.15
2017-04-23T11:56:37.865Z,1019.19
2017-04-23T11:57:37.871Z,1019.23
2017-04-23T11:58:37.877Z,1019.2
2017-04-23T11:59:37.881Z,1019.29
2017-04-23T12:00:37.886Z,1019.41
2017-04-23T12:01:37.891Z,1019.4
2017-04-23T12:02:37.895Z,1019.54
2017-04-23T12:03:37.899Z,1019.55
2017-04-23T12:04:37.906Z,1019.54
2017-04-23T12:05:37.907Z,1019.57
2017-04-23T12:06:37.913Z,1019.65
2017-04-23T12:07:37.917Z,1019.6